Time;durP1;ratioP1;P1;durP2;ratioP2;P2;SDS_P1;SDS_P2;PMS_P1;PMS_P2;Temp;Humidity;BMP_temperature;BMP_pressure;BME280_temperature;BME280_humidity;BME280_pressure;Samples;Min_cycle;Max_cycle;Signal;HPM_P1;HPM_P2
2024/01/06 00:01:13;;;;;;;8.30;3.15;;;3.20;99.90;;;;;;4977300;28;20038;-77
2024/01/06 00:03:39;;;;;;;7.68;3.40;;;3.30;99.90;;;;;;5009456;28;20045;-76
2024/01/06 00:06:05;;;;;;;5.80;3.25;;;3.20;99.90;;;;;;4994236;28;21381;-77
2024/01/06 00:08:30;;;;;;;5.53;3.58;;;3.20;99.90;;;;;;5015400;28;20056;-76
2024/01/06 00:10:56;;;;;;;4.47;2.63;;;3.10;99.90;;;;;;4977456;28;20153;-76
2024/01/06 00:13:22;;;;;;;7.45;3.67;;;3.10;99.90;;;;;;4980972;28;20046;-77
2024/01/06 00:15:47;;;;;;;6.65;3.08;;;3.10;99.90;;;;;;4983136;28;20046;-76
2024/01/06 00:18:13;;;;;;;4.03;2.88;;;3.00;99.90;;;;;;5000084;28;20411;-76
2024/01/06 00:20:39;;;;;;;6.07;2.80;;;3.00;99.90;;;;;;4982777;28;20034;-76
2024/01/06 00:23:05;;;;;;;7.00;3.38;;;3.00;99.90;;;;;;4999923;28;20053;-76
2024/01/06 00:25:30;;;;;;;5.80;3.70;;;3.10;99.90;;;;;;4999153;28;20050;-76
2024/01/06 00:27:56;;;;;;;7.78;3.75;;;3.00;99.90;;;;;;4999906;28;20061;-76
2024/01/06 00:30:22;;;;;;;5.88;3.50;;;3.00;99.90;;;;;;4979874;28;20434;-76
2024/01/06 00:32:47;;;;;;;7.97;3.63;;;3.00;99.90;;;;;;4975195;28;20046;-76
2024/01/06 00:35:13;;;;;;;6.50;3.80;;;3.00;99.90;;;;;;5016266;28;20045;-76
2024/01/06 00:37:39;;;;;;;6.03;2.90;;;3.00;99.90;;;;;;4982266;28;20081;-76
2024/01/06 00:40:05;;;;;;;5.38;3.33;;;3.00;99.90;;;;;;4999487;28;20042;-76
2024/01/06 00:42:31;;;;;;;7.35;4.72;;;3.00;99.90;;;;;;5015893;28;20531;-76
2024/01/06 00:44:56;;;;;;;6.10;3.80;;;2.90;99.90;;;;;;5015592;28;20100;-76
2024/01/06 00:47:24;;;;;;;9.18;4.45;;;2.90;99.90;;;;;;4981250;28;20046;-76
2024/01/06 00:49:50;;;;;;;5.53;3.78;;;2.90;99.90;;;;;;4976932;28;20050;-76
2024/01/06 00:52:15;;;;;;;11.77;4.75;;;3.00;99.90;;;;;;4977592;28;20050;-76
2024/01/06 00:54:41;;;;;;;11.63;5.18;;;2.90;99.90;;;;;;5008795;28;20179;-76
2024/01/06 00:57:07;;;;;;;7.85;3.35;;;2.90;99.90;;;;;;4994970;28;20073;-76
2024/01/06 00:59:33;;;;;;;6.80;3.83;;;3.00;99.90;;;;;;4975799;28;20054;-76
2024/01/06 01:01:58;;;;;;;9.30;4.00;;;3.00;99.90;;;;;;4992419;28;20075;-76
2024/01/06 01:04:24;;;;;;;7.55;5.15;;;3.00;99.90;;;;;;4993083;28;20052;-76
2024/01/06 01:06:50;;;;;;;6.05;3.45;;;3.00;99.90;;;;;;4974885;28;20069;-76
2024/01/06 01:09:16;;;;;;;9.65;5.00;;;3.00;99.90;;;;;;4975449;28;20058;-76
2024/01/06 01:11:42;;;;;;;10.48;5.15;;;3.00;99.90;;;;;;4989239;28;20053;-76
2024/01/06 01:14:07;;;;;;;9.57;5.43;;;2.90;99.90;;;;;;4977932;28;20440;-76
2024/01/06 01:16:33;;;;;;;8.40;5.03;;;2.90;99.90;;;;;;4975074;28;20046;-76
2024/01/06 01:18:59;;;;;;;10.05;5.35;;;2.90;99.90;;;;;;4992761;28;20050;-76
2024/01/06 01:21:24;;;;;;;7.38;3.95;;;2.90;99.90;;;;;;5009079;28;20045;-76
2024/01/06 01:23:50;;;;;;;8.70;5.07;;;2.90;99.90;;;;;;4990310;28;20609;-76
2024/01/06 01:26:16;;;;;;;16.23;6.38;;;2.90;99.90;;;;;;4977565;28;20507;-76
2024/01/06 01:28:42;;;;;;;12.88;6.90;;;2.90;99.90;;;;;;4975814;28;20128;-76
2024/01/06 01:31:08;;;;;;;12.30;6.15;;;2.90;99.90;;;;;;4962904;28;20061;-76
2024/01/06 01:33:34;;;;;;;12.07;7.05;;;2.90;99.90;;;;;;4992012;28;20574;-76
2024/01/06 01:35:59;;;;;;;17.77;7.15;;;2.90;99.90;;;;;;4961299;28;20089;-76
2024/01/06 01:38:25;;;;;;;10.07;5.72;;;2.80;99.90;;;;;;4990554;28;20133;-76
2024/01/06 01:40:51;;;;;;;13.18;6.32;;;2.70;99.90;;;;;;4976751;28;20072;-76
2024/01/06 01:43:20;;;;;;;13.10;5.90;;;2.70;99.90;;;;;;5009131;28;20065;-76
2024/01/06 01:45:52;;;;;;;12.73;5.25;;;2.70;99.90;;;;;;4991089;28;20603;-76
2024/01/06 01:48:20;;;;;;;14.25;5.70;;;2.70;99.90;;;;;;4992429;28;20054;-76
2024/01/06 01:50:46;;;;;;;10.05;4.78;;;2.70;99.90;;;;;;4991583;28;20136;-76
2024/01/06 01:53:13;;;;;;;16.00;7.22;;;2.70;99.90;;;;;;4993213;28;20050;-76
2024/01/06 01:55:40;;;;;;;10.55;4.28;;;2.60;99.90;;;;;;5007151;28;20038;-76
2024/01/06 01:58:06;;;;;;;17.33;4.82;;;2.60;99.90;;;;;;5008869;28;20042;-76
2024/01/06 02:00:32;;;;;;;9.57;5.35;;;2.60;99.90;;;;;;4976119;28;20139;-76
2024/01/06 02:03:00;;;;;;;10.25;5.00;;;2.60;99.90;;;;;;4978366;28;20473;-76
2024/01/06 02:05:26;;;;;;;10.18;4.28;;;2.60;99.90;;;;;;4992950;28;20030;-76
2024/01/06 02:07:52;;;;;;;9.20;5.30;;;2.50;99.90;;;;;;4994616;28;20125;-76
2024/01/06 02:10:18;;;;;;;10.30;5.20;;;2.50;99.90;;;;;;4993159;28;20070;-76
2024/01/06 02:12:44;;;;;;;17.02;6.22;;;2.50;99.90;;;;;;4962676;28;20050;-76
2024/01/06 02:15:09;;;;;;;14.88;6.10;;;2.50;99.90;;;;;;5001400;28;20119;-76
2024/01/06 02:17:35;;;;;;;17.65;5.88;;;2.50;99.90;;;;;;4981883;28;20050;-76
2024/01/06 02:20:01;;;;;;;9.48;5.53;;;2.50;99.90;;;;;;5000565;28;20082;-76
2024/01/06 02:22:26;;;;;;;6.05;4.53;;;2.50;99.90;;;;;;5001968;28;20134;-76
2024/01/06 02:24:53;;;;;;;15.82;5.30;;;2.50;99.90;;;;;;4983585;28;20094;-76
2024/01/06 02:27:19;;;;;;;9.40;5.32;;;2.60;99.90;;;;;;4985762;28;20062;-76
2024/01/06 02:29:44;;;;;;;12.55;5.63;;;2.50;99.90;;;;;;4981998;28;20073;-75
2024/01/06 02:32:10;;;;;;;8.00;5.07;;;2.40;99.90;;;;;;5019008;28;20038;-76
2024/01/06 02:34:38;;;;;;;12.25;5.28;;;2.50;99.90;;;;;;5003649;28;20046;-76
2024/01/06 02:37:03;;;;;;;10.85;4.70;;;2.50;99.90;;;;;;4978945;28;20037;-76
2024/01/06 02:39:29;;;;;;;12.10;5.85;;;2.50;99.90;;;;;;5030573;28;20036;-76
2024/01/06 02:41:55;;;;;;;10.23;5.10;;;2.40;99.90;;;;;;5039004;28;20034;-76
2024/01/06 02:44:20;;;;;;;11.75;6.70;;;2.40;99.90;;;;;;5018306;28;20537;-76
2024/01/06 02:46:46;;;;;;;13.10;4.85;;;2.40;99.90;;;;;;5013980;28;20049;-76
2024/01/06 02:49:12;;;;;;;12.25;5.18;;;2.40;99.90;;;;;;4987201;28;20046;-76
2024/01/06 02:51:37;;;;;;;11.27;5.00;;;2.40;99.90;;;;;;5045037;28;20050;-75
2024/01/06 02:54:04;;;;;;;9.23;5.13;;;2.40;99.90;;;;;;5068753;28;20042;-76
2024/01/06 02:56:30;;;;;;;10.82;5.57;;;2.40;99.90;;;;;;5006632;28;20077;-76
2024/01/06 02:58:55;;;;;;;9.93;3.72;;;2.40;99.90;;;;;;4980664;28;20045;-76
2024/01/06 03:01:21;;;;;;;11.45;5.45;;;2.40;99.90;;;;;;4998750;28;20037;-76
2024/01/06 03:03:47;;;;;;;7.50;4.00;;;2.40;99.90;;;;;;4978096;28;20052;-76
2024/01/06 03:06:12;;;;;;;7.68;4.28;;;2.40;99.90;;;;;;4980325;28;20061;-76
2024/01/06 03:08:38;;;;;;;8.95;4.05;;;2.40;99.90;;;;;;4976342;28;20068;-76
2024/01/06 03:11:05;;;;;;;9.48;5.00;;;2.40;99.90;;;;;;4989199;28;20042;-76
2024/01/06 03:13:31;;;;;;;7.07;4.18;;;2.40;99.90;;;;;;4993899;28;20041;-75
2024/01/06 03:15:57;;;;;;;9.10;4.95;;;2.40;99.90;;;;;;5009439;28;20081;-75
2024/01/06 03:18:22;;;;;;;6.38;3.72;;;2.40;99.90;;;;;;4991672;28;20049;-76
2024/01/06 03:20:48;;;;;;;7.50;3.78;;;2.30;99.90;;;;;;4994412;28;20095;-76
2024/01/06 03:23:13;;;;;;;10.25;5.20;;;2.30;99.90;;;;;;5007117;28;20037;-76
2024/01/06 03:25:39;;;;;;;5.20;3.88;;;2.30;99.90;;;;;;4995685;28;20078;-76
2024/01/06 03:28:05;;;;;;;8.98;4.80;;;2.30;99.90;;;;;;4980425;28;20042;-76
2024/01/06 03:30:31;;;;;;;9.48;5.15;;;2.40;99.90;;;;;;4998134;28;20046;-76
2024/01/06 03:32:56;;;;;;;8.90;4.03;;;2.30;99.90;;;;;;5008669;28;20046;-75
2024/01/06 03:35:22;;;;;;;4.45;2.92;;;2.30;99.90;;;;;;4994992;28;20046;-75
2024/01/06 03:37:48;;;;;;;10.48;5.03;;;2.30;99.90;;;;;;4962447;28;20095;-77
2024/01/06 03:40:13;;;;;;;9.75;5.13;;;2.30;99.90;;;;;;4996160;28;20046;-76
2024/01/06 03:42:39;;;;;;;8.57;3.83;;;2.30;99.90;;;;;;4979943;28;20038;-76
2024/01/06 03:45:05;;;;;;;10.00;4.22;;;2.30;99.90;;;;;;4979216;28;20034;-76
2024/01/06 03:47:31;;;;;;;11.52;5.60;;;2.30;99.90;;;;;;4975402;28;20084;-76
2024/01/06 03:49:57;;;;;;;12.10;4.50;;;2.30;99.90;;;;;;4990147;28;20038;-76
2024/01/06 03:52:22;;;;;;;11.10;5.20;;;2.20;99.90;;;;;;4991175;28;20060;-76
2024/01/06 03:54:48;;;;;;;9.13;3.92;;;2.20;99.90;;;;;;4993114;28;20642;-76
2024/01/06 03:57:13;;;;;;;8.15;3.58;;;2.20;99.90;;;;;;4994035;28;20069;-76
2024/01/06 03:59:39;;;;;;;8.70;4.43;;;2.20;99.90;;;;;;4992793;28;20038;-76
2024/01/06 04:02:05;;;;;;;12.52;5.88;;;2.10;99.90;;;;;;5011755;28;20058;-76
2024/01/06 04:04:30;;;;;;;13.30;5.82;;;2.10;99.90;;;;;;4977350;28;20042;-76
2024/01/06 04:06:56;;;;;;;13.10;7.78;;;2.10;99.90;;;;;;4975731;28;20042;-76
2024/01/06 04:09:22;;;;;;;11.85;5.28;;;2.10;99.90;;;;;;4993698;28;20109;-76
2024/01/06 04:11:47;;;;;;;11.68;4.60;;;2.10;99.90;;;;;;4975592;28;20471;-76
2024/01/06 04:14:13;;;;;;;7.90;5.18;;;2.10;99.90;;;;;;4995029;28;20042;-76
2024/01/06 04:16:39;;;;;;;16.35;5.43;;;2.10;99.90;;;;;;5016915;28;20133;-76
2024/01/06 04:19:07;;;;;;;11.88;5.70;;;2.00;99.90;;;;;;4967968;28;20046;-76
2024/01/06 04:21:33;;;;;;;16.33;8.13;;;2.10;99.90;;;;;;4999142;28;20161;-76
2024/01/06 04:23:58;;;;;;;14.02;6.18;;;2.10;99.90;;;;;;4998808;28;20053;-76
2024/01/06 04:26:24;;;;;;;14.65;5.13;;;2.10;99.90;;;;;;4967457;28;20045;-76
2024/01/06 04:28:50;;;;;;;10.98;5.32;;;2.10;99.90;;;;;;4998842;28;20040;-76
2024/01/06 04:31:15;;;;;;;9.80;5.45;;;2.10;99.90;;;;;;4999918;28;20129;-76
2024/01/06 04:33:41;;;;;;;11.90;5.18;;;2.10;99.90;;;;;;4981835;28;20048;-76
2024/01/06 04:36:07;;;;;;;10.68;6.13;;;2.00;99.90;;;;;;4967805;28;20046;-76
2024/01/06 04:38:33;;;;;;;10.68;4.97;;;2.00;99.90;;;;;;5015377;28;20038;-76
2024/01/06 04:40:59;;;;;;;12.82;6.47;;;2.00;99.90;;;;;;4979735;28;20596;-76
2024/01/06 04:43:24;;;;;;;9.07;5.13;;;2.00;99.90;;;;;;5018539;28;20045;-76
2024/01/06 04:45:50;;;;;;;10.88;5.80;;;2.00;99.90;;;;;;4982222;28;20038;-76
2024/01/06 04:48:16;;;;;;;9.40;4.93;;;2.00;99.90;;;;;;4979030;28;20057;-76
2024/01/06 04:50:41;;;;;;;12.23;5.45;;;2.00;99.90;;;;;;5077822;28;20109;-76
2024/01/06 04:53:08;;;;;;;13.38;5.60;;;2.10;99.90;;;;;;4977321;28;20062;-76
2024/01/06 04:55:33;;;;;;;15.55;6.95;;;2.00;99.90;;;;;;4990475;28;20486;-76
2024/01/06 04:57:59;;;;;;;13.05;5.88;;;1.90;99.90;;;;;;4992833;28;20105;-76
2024/01/06 05:00:25;;;;;;;12.02;4.72;;;2.00;99.90;;;;;;5008473;28;20050;-76
2024/01/06 05:02:51;;;;;;;11.65;4.90;;;2.00;99.90;;;;;;5006031;28;20045;-76
2024/01/06 05:05:17;;;;;;;12.43;4.72;;;1.90;99.90;;;;;;4976661;28;20057;-76
2024/01/06 05:07:43;;;;;;;10.30;4.75;;;2.00;99.90;;;;;;5009180;28;20051;-76
2024/01/06 05:10:09;;;;;;;17.00;5.88;;;2.00;99.90;;;;;;4998206;28;20089;-76
2024/01/06 05:12:34;;;;;;;12.00;5.13;;;2.00;99.90;;;;;;4980039;28;20052;-76
2024/01/06 05:15:00;;;;;;;11.80;5.60;;;1.90;99.90;;;;;;5014241;28;20061;-76
2024/01/06 05:17:25;;;;;;;10.75;5.20;;;1.90;99.90;;;;;;4982616;28;20049;-76
2024/01/06 05:19:51;;;;;;;6.85;3.58;;;1.90;99.90;;;;;;4998085;28;20105;-76
2024/01/06 05:22:17;;;;;;;9.07;4.45;;;1.90;99.90;;;;;;4967176;28;20053;-76
2024/01/06 05:24:43;;;;;;;7.90;3.92;;;1.90;99.90;;;;;;4982087;28;20038;-76
2024/01/06 05:27:08;;;;;;;9.52;4.18;;;1.80;99.90;;;;;;4992180;28;20038;-76
2024/01/06 05:29:34;;;;;;;7.07;4.15;;;1.90;99.90;;;;;;4982193;28;20077;-76
2024/01/06 05:32:00;;;;;;;7.93;4.25;;;1.90;99.90;;;;;;5015077;28;20090;-76
2024/01/06 05:34:25;;;;;;;9.90;4.25;;;1.80;99.90;;;;;;4993299;28;20045;-76
2024/01/06 05:36:51;;;;;;;6.30;3.70;;;1.80;99.90;;;;;;4990939;28;20050;-76
2024/01/06 05:39:17;;;;;;;11.25;5.25;;;1.80;99.90;;;;;;4975749;28;20060;-76
2024/01/06 05:41:43;;;;;;;11.50;4.82;;;1.80;99.90;;;;;;4972823;28;20050;-76
2024/01/06 05:44:08;;;;;;;8.73;4.82;;;1.80;99.90;;;;;;5007889;28;20038;-76
2024/01/06 05:46:34;;;;;;;5.70;3.28;;;1.70;99.90;;;;;;4974676;28;20034;-75
2024/01/06 05:49:00;;;;;;;7.78;4.95;;;1.70;99.90;;;;;;4977340;28;20049;-76
2024/01/06 05:51:26;;;;;;;8.48;4.57;;;1.80;99.90;;;;;;4996157;28;20042;-76
2024/01/06 05:53:51;;;;;;;8.82;4.18;;;1.80;99.90;;;;;;4996202;28;20041;-76
2024/01/06 05:56:27;;;;;;;9.20;3.78;;;1.80;99.90;;;;;;4979446;28;20046;-76
2024/01/06 05:58:53;;;;;;;8.95;4.78;;;1.80;99.90;;;;;;5009619;28;20048;-76
2024/01/06 06:01:20;;;;;;;10.48;4.97;;;1.90;99.90;;;;;;4995711;28;20105;-76
2024/01/06 06:03:50;;;;;;;8.70;4.38;;;1.80;99.90;;;;;;4995763;28;20062;-76
2024/01/06 06:06:15;;;;;;;6.07;3.40;;;1.80;99.90;;;;;;4995806;28;20056;-76
2024/01/06 06:08:42;;;;;;;6.57;4.15;;;1.80;99.90;;;;;;4995267;28;20109;-76
2024/01/06 06:11:11;;;;;;;8.05;2.85;;;1.80;99.90;;;;;;5000093;28;20054;-76
2024/01/06 06:13:38;;;;;;;9.00;4.38;;;1.80;99.90;;;;;;4985936;28;20054;-76
2024/01/06 06:16:05;;;;;;;9.65;4.45;;;1.80;99.90;;;;;;4977719;28;20120;-76
2024/01/06 06:18:31;;;;;;;3.95;3.50;;;1.70;99.90;;;;;;4977726;28;20037;-77
2024/01/06 06:20:56;;;;;;;9.57;4.78;;;1.80;99.90;;;;;;5006526;28;20054;-76
2024/01/06 06:23:22;;;;;;;7.95;4.65;;;1.70;99.90;;;;;;5020582;28;20043;-76
2024/01/06 06:25:48;;;;;;;7.35;3.95;;;1.70;99.90;;;;;;4993596;28;20058;-76
2024/01/06 06:28:13;;;;;;;10.88;5.72;;;1.70;99.90;;;;;;5007222;28;20101;-76
2024/01/06 06:30:39;;;;;;;11.93;5.07;;;1.60;99.90;;;;;;4991614;28;20492;-76
2024/01/06 06:33:05;;;;;;;8.68;5.00;;;1.60;99.90;;;;;;5000504;28;20042;-76
2024/01/06 06:35:31;;;;;;;8.77;5.45;;;1.60;99.90;;;;;;4985618;28;20038;-76
2024/01/06 06:37:56;;;;;;;9.02;5.07;;;1.70;99.90;;;;;;4968015;28;20072;-77
2024/01/06 06:40:22;;;;;;;7.82;4.60;;;1.60;99.90;;;;;;4984823;28;20046;-76
2024/01/06 06:42:47;;;;;;;10.15;3.40;;;1.60;99.90;;;;;;4964851;28;20146;-76
2024/01/06 06:45:13;;;;;;;10.90;4.70;;;1.60;99.90;;;;;;4998042;28;20049;-76
2024/01/06 06:47:39;;;;;;;13.50;4.70;;;1.60;99.90;;;;;;4994733;28;20054;-76
2024/01/06 06:50:05;;;;;;;9.68;3.80;;;1.60;99.90;;;;;;4976602;28;20057;-76
2024/01/06 06:52:31;;;;;;;10.32;3.97;;;1.50;99.90;;;;;;4992334;28;20104;-76
2024/01/06 06:54:57;;;;;;;8.98;4.28;;;1.50;99.90;;;;;;4992927;28;20046;-76
2024/01/06 06:57:24;;;;;;;9.82;3.70;;;1.50;99.90;;;;;;4992358;28;20465;-76
2024/01/06 06:59:49;;;;;;;7.63;4.03;;;1.50;99.90;;;;;;5006604;28;20114;-76
2024/01/06 07:02:15;;;;;;;11.32;3.95;;;1.50;99.90;;;;;;4976558;28;20069;-76
2024/01/06 07:04:41;;;;;;;9.32;4.97;;;1.50;99.90;;;;;;4978671;28;20060;-76
2024/01/06 07:07:06;;;;;;;9.57;4.72;;;1.50;99.90;;;;;;5006552;28;21894;-76
2024/01/06 07:09:32;;;;;;;5.28;3.05;;;1.50;99.90;;;;;;4991288;28;20057;-76
2024/01/06 07:11:58;;;;;;;5.88;4.18;;;1.50;99.90;;;;;;5007243;28;20042;-76
2024/01/06 07:14:23;;;;;;;12.95;6.25;;;1.50;99.90;;;;;;5008672;28;20054;-76
2024/01/06 07:16:49;;;;;;;10.50;4.85;;;1.60;99.90;;;;;;5079143;28;20038;-76
2024/01/06 07:19:15;;;;;;;9.25;4.65;;;1.50;99.90;;;;;;4961111;28;20077;-76
2024/01/06 07:21:41;;;;;;;9.07;4.60;;;1.60;99.90;;;;;;4976931;28;20045;-76
2024/01/06 07:24:06;;;;;;;8.63;4.80;;;1.60;99.90;;;;;;5006654;28;20046;-76
2024/01/06 07:26:32;;;;;;;10.27;4.68;;;1.60;99.90;;;;;;5010804;28;20046;-76
2024/01/06 07:28:58;;;;;;;10.05;4.93;;;1.60;99.90;;;;;;4992750;28;20053;-76
2024/01/06 07:31:23;;;;;;;8.80;4.72;;;1.60;99.90;;;;;;5009458;28;20113;-76
2024/01/06 07:33:49;;;;;;;5.95;4.07;;;1.60;99.90;;;;;;4975928;28;20042;-76
2024/01/06 07:36:16;;;;;;;16.90;4.43;;;1.60;99.90;;;;;;5085053;28;20044;-76
2024/01/06 07:38:41;;;;;;;12.43;5.43;;;1.70;99.90;;;;;;5004267;28;20050;-76
2024/01/06 07:41:07;;;;;;;11.32;5.85;;;1.60;99.90;;;;;;4992934;28;20563;-76
2024/01/06 07:43:33;;;;;;;5.88;3.45;;;1.60;99.90;;;;;;4977462;28;20045;-76
2024/01/06 07:45:59;;;;;;;7.57;4.80;;;1.50;99.90;;;;;;4975169;28;20045;-76
2024/01/06 07:48:25;;;;;;;8.70;3.42;;;1.60;99.90;;;;;;4991344;28;20099;-76
2024/01/06 07:50:50;;;;;;;12.32;5.63;;;1.50;99.90;;;;;;4976619;28;20033;-76
2024/01/06 07:53:16;;;;;;;7.75;5.13;;;1.50;99.90;;;;;;4979847;28;20089;-76
2024/01/06 07:55:42;;;;;;;6.28;4.65;;;1.50;99.90;;;;;;4974090;28;20678;-76
2024/01/06 07:58:08;;;;;;;15.30;5.40;;;1.50;99.90;;;;;;4989712;28;20102;-76
2024/01/06 08:00:34;;;;;;;9.50;5.22;;;1.50;99.90;;;;;;4978332;28;20087;-76
2024/01/06 08:03:00;;;;;;;6.85;4.97;;;1.60;99.90;;;;;;4993283;28;20421;-76
2024/01/06 08:05:25;;;;;;;11.85;5.35;;;1.60;99.90;;;;;;4994450;28;20046;-76
2024/01/06 08:07:52;;;;;;;10.77;3.50;;;1.70;99.90;;;;;;4992687;28;20049;-76
2024/01/06 08:10:17;;;;;;;7.68;4.28;;;1.60;99.90;;;;;;4992955;28;20049;-76
2024/01/06 08:12:43;;;;;;;5.97;4.07;;;1.60;99.90;;;;;;5009768;28;20057;-76
2024/01/06 08:15:09;;;;;;;9.05;3.83;;;1.60;99.90;;;;;;4990261;28;20068;-76
2024/01/06 08:17:35;;;;;;;9.50;5.55;;;1.60;99.90;;;;;;4967972;28;20057;-76
2024/01/06 08:20:03;;;;;;;6.90;4.38;;;1.60;99.90;;;;;;5006829;28;20041;-76
2024/01/06 08:22:28;;;;;;;9.80;4.53;;;1.60;99.90;;;;;;5002974;28;20484;-76
2024/01/06 08:24:54;;;;;;;6.00;3.60;;;1.60;99.90;;;;;;4993435;28;20040;-76
2024/01/06 08:27:21;;;;;;;7.35;4.65;;;1.60;99.90;;;;;;4983135;28;20034;-76
2024/01/06 08:29:47;;;;;;;7.70;4.93;;;1.60;99.90;;;;;;5012695;28;20057;-76
2024/01/06 08:32:14;;;;;;;7.57;4.43;;;1.60;99.90;;;;;;4994309;28;20046;-76
2024/01/06 08:34:40;;;;;;;9.68;3.88;;;1.70;99.90;;;;;;4993602;28;20056;-76
2024/01/06 08:37:06;;;;;;;7.03;3.63;;;1.70;99.90;;;;;;4991846;28;20041;-76
2024/01/06 08:39:32;;;;;;;6.70;3.80;;;1.70;99.90;;;;;;4979690;28;20091;-76
2024/01/06 08:41:58;;;;;;;8.48;5.13;;;1.70;99.90;;;;;;4962992;28;20038;-76
2024/01/06 08:44:24;;;;;;;7.75;3.85;;;1.80;99.90;;;;;;5009663;28;20054;-76
2024/01/06 08:46:50;;;;;;;4.95;3.40;;;1.70;99.90;;;;;;5011788;28;20041;-76
2024/01/06 08:49:16;;;;;;;8.23;4.30;;;1.70;99.90;;;;;;4982190;28;20061;-76
2024/01/06 08:51:41;;;;;;;15.27;4.82;;;1.80;99.90;;;;;;4983396;28;20077;-76
2024/01/06 08:54:07;;;;;;;8.27;3.70;;;1.70;99.90;;;;;;5000000;28;20041;-76
2024/01/06 08:56:34;;;;;;;6.13;3.00;;;1.80;99.90;;;;;;5011806;28;20045;-76
2024/01/06 08:59:00;;;;;;;6.57;4.25;;;1.80;99.90;;;;;;4979662;28;20071;-76
2024/01/06 09:01:25;;;;;;;6.30;3.42;;;1.80;99.90;;;;;;4978807;28;20046;-76
2024/01/06 09:03:51;;;;;;;6.85;3.70;;;1.70;99.90;;;;;;4987084;28;20125;-76
2024/01/06 09:06:17;;;;;;;7.35;4.90;;;1.80;99.90;;;;;;4977839;28;20037;-76
2024/01/06 09:08:42;;;;;;;6.55;4.00;;;1.80;99.90;;;;;;4991614;28;20053;-76
2024/01/06 09:11:08;;;;;;;10.77;4.90;;;1.90;99.90;;;;;;5010403;28;20066;-76
2024/01/06 09:13:34;;;;;;;7.20;4.03;;;1.80;99.90;;;;;;4993028;28;20041;-76
2024/01/06 09:16:03;;;;;;;7.57;4.47;;;1.80;99.90;;;;;;4992756;28;20049;-76
2024/01/06 09:18:29;;;;;;;8.05;4.35;;;1.80;99.90;;;;;;4993410;28;20077;-76
2024/01/06 09:20:54;;;;;;;6.25;4.13;;;1.90;99.90;;;;;;4973337;28;20034;-77
2024/01/06 09:23:21;;;;;;;9.70;4.50;;;1.80;99.90;;;;;;5010151;28;20041;-77
2024/01/06 09:25:49;;;;;;;10.05;4.13;;;1.90;99.90;;;;;;5004574;28;20057;-77
2024/01/06 09:28:15;;;;;;;10.45;5.45;;;1.90;99.90;;;;;;5003760;28;20425;-76
2024/01/06 09:30:41;;;;;;;7.97;4.13;;;1.90;99.90;;;;;;5001584;28;20531;-76
2024/01/06 09:33:08;;;;;;;7.65;2.97;;;2.00;99.90;;;;;;4999416;28;20069;-76
2024/01/06 09:35:34;;;;;;;7.32;3.20;;;2.00;99.90;;;;;;5007589;28;20046;-77
2024/01/06 09:38:00;;;;;;;4.82;2.97;;;2.00;99.90;;;;;;5000134;28;20046;-77
2024/01/06 09:40:26;;;;;;;8.30;4.85;;;2.00;99.90;;;;;;5002049;28;20103;-77
2024/01/06 09:42:53;;;;;;;6.00;3.38;;;2.00;99.90;;;;;;5001281;28;20058;-77
2024/01/06 09:45:20;;;;;;;7.05;4.10;;;2.00;99.90;;;;;;5014567;28;20054;-76
2024/01/06 09:47:50;;;;;;;8.18;4.03;;;2.10;99.90;;;;;;4982436;28;20062;-76
2024/01/06 09:50:22;;;;;;;8.48;4.97;;;2.10;99.90;;;;;;4983213;28;20102;-77
2024/01/06 09:52:56;;;;;;;6.17;3.70;;;2.20;99.90;;;;;;5001463;28;20064;-76
2024/01/06 09:55:26;;;;;;;7.63;3.90;;;2.10;99.90;;;;;;5027664;28;20053;-77
2024/01/06 09:57:55;;;;;;;7.07;4.15;;;2.10;99.90;;;;;;5002646;28;20048;-77
2024/01/06 10:00:21;;;;;;;6.72;3.60;;;2.10;99.90;;;;;;4999356;28;20042;-82
2024/01/06 10:02:48;;;;;;;8.60;4.20;;;2.10;99.90;;;;;;5012054;28;20053;-82
2024/01/06 10:05:16;;;;;;;8.85;3.42;;;2.10;99.90;;;;;;5000736;28;20046;-81
2024/01/06 10:07:45;;;;;;;10.32;3.78;;;2.10;99.90;;;;;;5012973;28;20121;-83
2024/01/06 10:10:12;;;;;;;8.88;4.07;;;2.10;99.90;;;;;;5003161;28;20049;-81
2024/01/06 10:12:39;;;;;;;10.05;4.13;;;2.00;99.90;;;;;;4987568;28;20355;-82
2024/01/06 10:15:06;;;;;;;7.15;4.32;;;2.10;99.90;;;;;;4989551;28;20042;-81
2024/01/06 10:17:33;;;;;;;7.85;4.38;;;2.00;99.90;;;;;;4985278;28;20463;-81
2024/01/06 10:20:00;;;;;;;6.32;4.47;;;2.10;99.90;;;;;;4987685;28;20038;-82
2024/01/06 10:22:26;;;;;;;9.40;4.47;;;2.10;99.90;;;;;;5005625;28;20038;-82
2024/01/06 10:24:52;;;;;;;8.43;3.42;;;2.10;99.90;;;;;;5000755;28;20053;-81
2024/01/06 10:27:17;;;;;;;6.72;3.75;;;2.10;99.90;;;;;;4977931;28;20042;-81
2024/01/06 10:29:44;;;;;;;9.10;5.03;;;2.10;99.90;;;;;;5020108;28;20091;-82
2024/01/06 10:32:10;;;;;;;4.40;2.95;;;2.10;99.90;;;;;;5001321;28;20042;-82
2024/01/06 10:34:37;;;;;;;11.85;4.80;;;2.20;99.90;;;;;;4987031;28;20069;-82
2024/01/06 10:37:03;;;;;;;18.35;7.38;;;2.20;99.90;;;;;;4997500;28;20046;-82
2024/01/06 10:39:29;;;;;;;5.43;2.75;;;2.10;99.90;;;;;;4969119;28;20074;-83
2024/01/06 10:41:56;;;;;;;7.10;4.50;;;2.10;99.90;;;;;;4981495;28;20050;-83
2024/01/06 10:44:23;;;;;;;9.70;5.22;;;2.10;99.90;;;;;;4994469;28;20050;-82
2024/01/06 10:46:52;;;;;;;8.65;5.25;;;2.10;99.90;;;;;;4982455;28;20101;-82
2024/01/06 10:49:21;;;;;;;12.23;4.93;;;2.10;99.90;;;;;;5010999;28;20050;-82
2024/01/06 10:51:49;;;;;;;9.88;4.65;;;2.20;99.90;;;;;;4997580;28;20049;-81
2024/01/06 10:54:16;;;;;;;15.23;4.82;;;2.20;99.90;;;;;;5013780;28;20077;-80
2024/01/06 10:56:43;;;;;;;8.32;4.97;;;2.30;99.90;;;;;;4984882;28;20042;-80
2024/01/06 10:59:11;;;;;;;10.75;5.40;;;2.30;99.90;;;;;;4976953;28;20045;-80
2024/01/06 11:01:37;;;;;;;10.30;6.20;;;2.30;99.90;;;;;;4996696;28;20049;-80
2024/01/06 11:04:06;;;;;;;5.15;3.63;;;2.20;99.90;;;;;;4993312;28;20121;-80
2024/01/06 11:06:33;;;;;;;5.07;3.78;;;2.30;99.90;;;;;;4995916;28;20061;-80
2024/01/06 11:09:04;;;;;;;8.20;4.28;;;2.30;99.90;;;;;;4991167;28;20703;-80
2024/01/06 11:11:30;;;;;;;7.18;3.97;;;2.30;99.90;;;;;;4997607;28;20091;-80
2024/01/06 11:14:25;;;;;;;9.82;4.38;;;2.30;99.90;;;;;;4983573;28;20079;-80
2024/01/06 11:16:52;;;;;;;5.20;3.38;;;2.30;99.90;;;;;;4983202;28;20424;-80
2024/01/06 11:19:42;;;;;;;7.70;3.72;;;2.30;99.90;;;;;;4981496;28;20049;-80
2024/01/06 11:22:24;;;;;;;8.75;4.15;;;2.30;99.90;;;;;;4999650;28;20341;-80
2024/01/06 11:24:52;;;;;;;7.80;4.80;;;2.40;99.90;;;;;;5002286;28;20060;-80
2024/01/06 11:27:30;;;;;;;8.48;4.30;;;2.40;99.90;;;;;;5001023;28;20053;-80
2024/01/06 11:29:58;;;;;;;5.47;3.38;;;2.40;99.90;;;;;;4998342;28;20046;-80
2024/01/06 11:32:39;;;;;;;8.88;3.72;;;2.40;99.90;;;;;;4999173;28;20114;-80
2024/01/06 11:35:15;;;;;;;6.20;3.55;;;2.40;99.90;;;;;;5000078;28;20047;-80
2024/01/06 11:37:41;;;;;;;7.13;3.08;;;2.40;99.90;;;;;;4984086;28;20061;-80
2024/01/06 11:40:23;;;;;;;6.93;3.58;;;2.40;99.90;;;;;;4998455;28;20068;-80
2024/01/06 11:42:58;;;;;;;6.10;3.83;;;2.40;99.90;;;;;;5013074;28;20545;-80
2024/01/06 11:45:27;;;;;;;7.32;3.92;;;2.30;99.90;;;;;;4998479;28;20046;-80
2024/01/06 11:48:04;;;;;;;8.93;5.07;;;2.40;99.90;;;;;;4995469;28;20050;-80
2024/01/06 11:50:32;;;;;;;7.53;3.10;;;2.40;99.90;;;;;;5015399;28;20045;-80
2024/01/06 11:52:59;;;;;;;7.97;4.28;;;2.40;99.90;;;;;;4996748;28;20615;-79
2024/01/06 11:55:29;;;;;;;6.15;3.75;;;2.40;99.90;;;;;;4997917;28;20068;-80
2024/01/06 11:58:02;;;;;;;9.93;4.78;;;2.50;99.90;;;;;;4987242;28;20056;-80
2024/01/06 12:00:39;;;;;;;5.65;4.05;;;2.40;99.90;;;;;;5012725;28;20498;-80
2024/01/06 12:03:04;;;;;;;5.75;3.47;;;2.20;99.90;;;;;;5015462;28;20103;-80
2024/01/06 12:05:30;;;;;;;7.43;3.75;;;2.30;99.90;;;;;;4999231;28;20066;-80
2024/01/06 12:07:59;;;;;;;7.13;3.75;;;2.30;99.90;;;;;;4998397;28;20063;-80
2024/01/06 12:10:27;;;;;;;6.88;3.33;;;2.30;99.90;;;;;;5000179;28;20080;-80
2024/01/06 12:13:04;;;;;;;6.88;4.50;;;2.20;99.90;;;;;;4986393;28;20077;-80
2024/01/06 12:15:31;;;;;;;7.88;3.70;;;2.20;99.90;;;;;;4980734;28;20049;-80
2024/01/06 12:17:57;;;;;;;6.47;3.85;;;2.20;99.90;;;;;;5014266;28;20091;-80
2024/01/06 12:20:24;;;;;;;8.57;4.43;;;2.20;99.90;;;;;;4982210;28;20050;-80
2024/01/06 12:22:53;;;;;;;9.77;3.97;;;2.10;99.90;;;;;;4995823;28;20034;-80
2024/01/06 12:25:24;;;;;;;5.03;2.65;;;2.10;99.90;;;;;;5008152;28;20053;-79
2024/01/06 12:27:52;;;;;;;6.70;3.95;;;2.10;99.90;;;;;;4972343;28;20046;-80
2024/01/06 12:30:19;;;;;;;9.75;5.10;;;2.10;99.90;;;;;;5016488;28;20102;-80
2024/01/06 12:32:47;;;;;;;10.95;4.78;;;2.10;99.90;;;;;;5006757;28;20042;-80
2024/01/06 12:35:13;;;;;;;23.85;10.48;;;2.20;99.90;;;;;;5006917;28;20045;-80
2024/01/06 12:37:41;;;;;;;6.10;3.33;;;2.20;99.90;;;;;;4976847;28;20046;-80
2024/01/06 12:40:09;;;;;;;8.18;3.92;;;2.10;99.90;;;;;;4978876;28;20070;-80
2024/01/06 12:42:36;;;;;;;13.25;5.07;;;2.10;99.90;;;;;;4996945;28;20057;-80
2024/01/06 12:45:02;;;;;;;7.90;3.92;;;2.10;99.90;;;;;;4982232;28;20041;-80
2024/01/06 12:47:28;;;;;;;10.32;4.57;;;2.20;99.90;;;;;;4980679;28;20067;-80
2024/01/06 12:49:53;;;;;;;10.52;4.35;;;2.20;99.90;;;;;;4997537;28;20052;-80